createdAt,value
2018-02-25T00:01:15.907Z,44.79
2018-02-25T00:02:17.388Z,44.96
2018-02-25T00:04:16.818Z,44.77
2018-02-25T00:05:16.328Z,44.68
2018-02-25T00:07:17.746Z,44.87
2018-02-25T00:08:16.751Z,44.87
2018-02-25T00:10:17.716Z,45.34
2018-02-25T00:11:17.132Z,45.34
2018-02-25T00:13:17.614Z,46.00
2018-02-25T00:14:18.657Z,45.90
2018-02-25T00:16:18.553Z,45.62
2018-02-25T00:17:17.987Z,45.90
2018-02-25T00:19:18.975Z,45.90
2018-02-25T00:20:18.416Z,45.53
2018-02-25T00:22:19.398Z,45.53
2018-02-25T00:23:19.345Z,45.72
2018-02-25T00:25:20.249Z,46.00
2018-02-25T00:26:19.327Z,46.28
2018-02-25T00:28:20.214Z,46.19
2018-02-25T00:29:20.196Z,46.00
2018-02-25T00:31:20.081Z,45.43
2018-02-25T00:32:20.546Z,45.43
2018-02-25T00:34:19.580Z,45.81
2018-02-25T00:35:19.053Z,45.81
2018-02-25T00:37:20.649Z,45.90
2018-02-25T00:38:18.638Z,45.62
2018-02-25T00:40:21.034Z,45.62
2018-02-25T00:41:20.248Z,45.62
2018-02-25T00:43:22.436Z,45.43
2018-02-25T00:44:20.752Z,45.72
2018-02-25T00:46:21.166Z,46.09
2018-02-25T00:47:21.613Z,46.09
2018-02-25T00:49:24.585Z,46.00
2018-02-25T00:51:41.919Z,46.37
2018-02-25T00:52:41.898Z,46.19
2018-02-25T00:54:42.337Z,46.28
2018-02-25T00:55:42.348Z,46.28
2018-02-25T00:57:42.741Z,46.19
2018-02-25T00:58:42.741Z,46.09
2018-02-25T01:00:43.196Z,46.47
2018-02-25T01:01:43.217Z,46.37
2018-02-25T01:03:44.118Z,46.19
2018-02-25T01:04:44.057Z,46.37
2018-02-25T01:06:44.563Z,46.56
2018-02-25T01:07:43.966Z,46.37
2018-02-25T01:09:44.528Z,46.37
2018-02-25T01:10:44.947Z,46.09
2018-02-25T01:12:45.563Z,46.09
2018-02-25T01:13:46.317Z,46.56
2018-02-25T01:15:45.226Z,46.66
2018-02-25T01:16:45.194Z,46.85
2018-02-25T01:18:45.685Z,47.04
2018-02-25T01:19:46.113Z,47.04
2018-02-25T01:21:47.076Z,47.04
2018-02-25T01:22:47.430Z,47.32
2018-02-25T01:24:47.476Z,46.94
2018-02-25T01:25:46.513Z,46.94
2018-02-25T01:27:46.923Z,47.04
2018-02-25T01:28:47.358Z,47.32
2018-02-25T01:30:48.322Z,47.32
2018-02-25T01:31:47.251Z,47.04
2018-02-25T01:33:45.178Z,47.04
2018-02-25T01:34:45.186Z,47.32
2018-02-25T01:36:45.657Z,47.04
2018-02-25T01:37:46.191Z,47.04
2018-02-25T01:39:46.519Z,46.66
2018-02-25T01:40:47.483Z,46.94
2018-02-25T01:42:46.381Z,47.32
2018-02-25T01:43:46.884Z,47.32
2018-02-25T01:45:46.890Z,47.32
2018-02-25T01:46:47.294Z,47.04
2018-02-25T01:48:47.275Z,46.94
2018-02-25T01:49:47.218Z,47.04
2018-02-25T01:51:48.601Z,46.85
2018-02-25T01:52:47.606Z,47.32
2018-02-25T01:54:48.006Z,47.80
2018-02-25T01:55:48.534Z,47.80
2018-02-25T01:57:48.455Z,47.13
2018-02-25T01:58:48.389Z,47.32
2018-02-25T02:00:48.939Z,47.80
2018-02-25T02:01:49.399Z,47.80
2018-02-25T02:03:49.267Z,47.89
2018-02-25T02:04:49.252Z,47.32
2018-02-25T02:06:47.669Z,47.80
2018-02-25T02:07:47.164Z,47.61
2018-02-25T02:09:47.577Z,47.96
2018-02-25T02:10:47.556Z,47.99
2018-02-25T02:12:48.515Z,47.89
2018-02-25T02:13:48.512Z,47.39
2018-02-25T02:15:48.384Z,47.96
2018-02-25T02:16:48.907Z,47.58
2018-02-25T02:18:49.323Z,48.34
2018-02-25T02:19:48.755Z,48.05
2018-02-25T02:21:49.195Z,47.86
2018-02-25T02:22:49.665Z,47.67
2018-02-25T02:24:50.146Z,48.05
2018-02-25T02:25:49.559Z,48.15
2018-02-25T02:27:54.514Z,48.15
2018-02-25T02:28:54.495Z,48.05
2018-02-25T02:30:54.502Z,48.34
2018-02-25T02:31:54.931Z,48.52
2018-02-25T02:33:50.896Z,48.34
2018-02-25T02:34:50.323Z,48.15
2018-02-25T02:36:51.258Z,48.24
2018-02-25T02:37:51.245Z,48.43
2018-02-25T02:39:51.725Z,47.67
2018-02-25T02:40:51.762Z,48.43
2018-02-25T02:42:52.096Z,48.43
2018-02-25T02:43:52.056Z,48.34
2018-02-25T02:45:52.962Z,48.15
2018-02-25T02:46:52.005Z,47.96
2018-02-25T02:48:49.929Z,48.05
2018-02-25T02:49:50.407Z,47.96
2018-02-25T02:51:51.757Z,48.24
2018-02-25T02:52:50.806Z,48.15
2018-02-25T02:54:51.776Z,48.24
2018-02-25T02:55:51.736Z,48.52
2018-02-25T02:57:52.216Z,49.09
2018-02-25T02:58:52.175Z,49.19
2018-02-25T03:00:52.099Z,48.71
2018-02-25T03:01:52.632Z,49.00
2018-02-25T03:03:52.986Z,49.00
2018-02-25T03:04:52.513Z,48.90
2018-02-25T03:06:53.912Z,49.00
2018-02-25T03:07:52.914Z,48.90
2018-02-25T03:09:49.860Z,49.09
2018-02-25T03:10:48.800Z,49.00
2018-02-25T03:12:44.800Z,48.81
2018-02-25T03:13:44.702Z,48.90
2018-02-25T03:15:45.686Z,48.81
2018-02-25T03:16:45.125Z,49.00
2018-02-25T03:18:45.606Z,49.09
2018-02-25T03:19:45.516Z,48.90
2018-02-25T03:21:46.466Z,49.00
2018-02-25T03:22:45.930Z,49.09
2018-02-25T03:24:46.345Z,49.28
2018-02-25T03:25:47.274Z,49.28
2018-02-25T03:27:44.288Z,49.28
2018-02-25T03:28:44.226Z,49.19
2018-02-25T03:30:45.189Z,48.90
2018-02-25T03:31:44.638Z,49.00
2018-02-25T03:33:46.062Z,48.90
2018-02-25T03:34:45.032Z,49.09
2018-02-25T03:36:42.968Z,48.81
2018-02-25T03:37:43.500Z,48.90
2018-02-25T03:39:41.407Z,48.81
2018-02-25T03:40:41.376Z,48.81
2018-02-25T03:42:39.790Z,49.00
2018-02-25T03:43:39.756Z,49.19
2018-02-25T03:45:39.850Z,48.71
2018-02-25T03:46:39.257Z,49.19
2018-02-25T03:48:39.716Z,48.81
2018-02-25T03:49:40.216Z,49.09
2018-02-25T03:51:38.659Z,49.00
2018-02-25T03:52:38.581Z,48.90
2018-02-25T03:54:40.038Z,49.09
2018-02-25T03:55:38.602Z,48.52
2018-02-25T03:57:36.058Z,49.57
2018-02-25T03:58:35.963Z,49.28
2018-02-25T04:00:38.330Z,49.09
2018-02-25T04:01:36.371Z,49.09
2018-02-25T04:03:35.359Z,49.09
2018-02-25T04:04:34.302Z,48.62
2018-02-25T04:06:34.709Z,48.43
2018-02-25T04:07:35.247Z,48.43
2018-02-25T04:09:33.157Z,47.96
2018-02-25T04:10:33.155Z,48.43
2018-02-25T04:12:34.045Z,48.15
2018-02-25T04:13:33.047Z,48.15
2018-02-25T04:15:31.940Z,48.15
2018-02-25T04:16:31.095Z,48.05
2018-02-25T04:18:30.455Z,47.96
2018-02-25T04:19:30.567Z,48.34
2018-02-25T04:21:26.882Z,48.05
2018-02-25T04:22:27.349Z,48.05
2018-02-25T04:24:25.263Z,47.58
2018-02-25T04:25:24.719Z,47.49
2018-02-25T04:27:22.575Z,48.15
2018-02-25T04:28:21.143Z,48.34
2018-02-25T04:30:21.058Z,48.15
2018-02-25T04:31:21.007Z,48.05
2018-02-25T04:33:22.492Z,48.05
2018-02-25T04:34:21.976Z,48.24
2018-02-25T04:36:22.868Z,48.05
2018-02-25T04:37:21.837Z,47.94
2018-02-25T04:39:22.281Z,47.96
2018-02-25T04:40:22.776Z,48.05
2018-02-25T04:42:20.276Z,48.15
2018-02-25T04:43:20.308Z,47.86
2018-02-25T04:45:21.197Z,47.86
2018-02-25T04:46:21.201Z,48.05
2018-02-25T04:48:21.132Z,48.24
2018-02-25T04:49:21.078Z,47.86
2018-02-25T04:51:23.001Z,47.77
2018-02-25T04:52:21.998Z,47.75
2018-02-25T04:54:19.948Z,47.75
2018-02-25T04:55:19.410Z,47.56
2018-02-25T04:57:19.808Z,48.22
2018-02-25T04:58:19.817Z,48.13
2018-02-25T05:00:20.252Z,48.13
2018-02-25T05:01:20.257Z,48.41
2018-02-25T05:03:20.695Z,48.97
2018-02-25T05:04:20.626Z,48.60
2018-02-25T05:06:22.073Z,48.69
2018-02-25T05:07:21.056Z,49.07
2018-02-25T05:09:19.044Z,48.60
2018-02-25T05:10:19.518Z,48.69
2018-02-25T05:12:20.402Z,49.07
2018-02-25T05:13:19.378Z,48.69
2018-02-25T05:15:19.868Z,48.69
2018-02-25T05:16:20.327Z,48.41
2018-02-25T05:18:17.701Z,47.94
2018-02-25T05:19:17.657Z,47.65
2018-02-25T05:21:18.091Z,47.46
2018-02-25T05:22:18.059Z,47.56
2018-02-25T05:24:18.491Z,47.84
2018-02-25T05:25:19.988Z,47.27
2018-02-25T05:27:18.919Z,47.75
2018-02-25T05:28:19.392Z,47.94
2018-02-25T05:30:19.279Z,48.22
2018-02-25T05:31:19.841Z,48.03
2018-02-25T05:33:15.709Z,47.94
2018-02-25T05:34:15.682Z,47.84
2018-02-25T05:36:13.180Z,48.13
2018-02-25T05:37:14.113Z,47.94
2018-02-25T05:39:13.635Z,47.94
2018-02-25T05:40:14.134Z,47.46
2018-02-25T05:42:14.560Z,47.84
2018-02-25T05:43:14.547Z,47.56
2018-02-25T05:45:15.444Z,47.75
2018-02-25T05:46:14.444Z,48.32
2018-02-25T05:48:14.824Z,48.22
2018-02-25T05:49:15.386Z,48.03
2018-02-25T05:51:12.717Z,47.65
2018-02-25T05:52:13.238Z,47.56
2018-02-25T05:54:14.127Z,47.84
2018-02-25T05:55:13.654Z,47.56
2018-02-25T05:57:10.997Z,48.13
2018-02-25T05:58:11.525Z,48.13
2018-02-25T06:00:08.463Z,47.84
2018-02-25T06:01:07.896Z,47.84
2018-02-25T06:03:09.346Z,47.84
2018-02-25T06:04:08.860Z,48.13
2018-02-25T06:06:06.266Z,48.41
2018-02-25T06:08:24.679Z,48.50
2018-02-25T06:09:24.230Z,47.94
2018-02-25T06:11:22.656Z,48.22
2018-02-25T06:12:22.143Z,48.32
2018-02-25T06:14:22.637Z,48.97
2018-02-25T06:15:22.554Z,48.60
2018-02-25T06:17:24.002Z,48.13
2018-02-25T06:18:22.917Z,48.03
2018-02-25T06:20:23.366Z,48.41
2018-02-25T06:21:23.886Z,48.22
2018-02-25T06:23:23.832Z,48.79
2018-02-25T06:24:23.771Z,48.69
2018-02-25T06:26:24.216Z,49.07
2018-02-25T06:27:24.172Z,48.69
2018-02-25T06:29:25.645Z,48.69
2018-02-25T06:30:24.600Z,49.07
2018-02-25T06:32:25.019Z,49.07
2018-02-25T06:33:24.969Z,48.79
2018-02-25T06:35:23.434Z,48.60
2018-02-25T06:36:22.880Z,48.88
2018-02-25T06:38:21.797Z,48.88
2018-02-25T06:39:20.750Z,48.69
2018-02-25T06:41:19.193Z,48.88
2018-02-25T06:42:18.697Z,48.69
2018-02-25T06:44:16.678Z,48.60
2018-02-25T06:45:16.597Z,48.79
2018-02-25T06:47:17.520Z,48.79
2018-02-25T06:48:16.976Z,48.79
2018-02-25T06:50:17.389Z,48.69
2018-02-25T06:51:17.390Z,48.79
2018-02-25T06:53:18.325Z,48.79
2018-02-25T06:54:17.791Z,48.97
2018-02-25T06:56:19.198Z,48.69
2018-02-25T06:57:18.174Z,48.79
2018-02-25T06:59:19.623Z,49.07
2018-02-25T07:00:19.122Z,48.88
2018-02-25T07:02:17.538Z,48.60
2018-02-25T07:03:16.472Z,48.97
2018-02-25T07:05:14.412Z,48.32
2018-02-25T07:06:14.390Z,47.94
2018-02-25T07:08:15.324Z,47.65
2018-02-25T07:09:14.781Z,48.41
2018-02-25T07:11:15.757Z,48.03
2018-02-25T07:12:15.708Z,48.13
2018-02-25T07:14:11.105Z,48.22
2018-02-25T07:15:11.120Z,48.22
2018-02-25T07:17:07.493Z,48.03
2018-02-25T07:18:06.959Z,48.03
2018-02-25T07:20:07.483Z,48.22
2018-02-25T07:21:07.903Z,48.03
2018-02-25T07:23:07.817Z,48.03
2018-02-25T07:24:08.331Z,47.84
2018-02-25T07:26:06.252Z,47.94
2018-02-25T07:27:05.668Z,48.22
2018-02-25T07:29:06.112Z,47.75
2018-02-25T07:30:06.657Z,47.75
2018-02-25T07:32:05.031Z,47.65
2018-02-25T07:33:04.559Z,47.75
2018-02-25T07:35:04.447Z,47.56
2018-02-25T07:36:04.388Z,47.46
2018-02-25T07:38:02.837Z,48.03
2018-02-25T07:39:02.298Z,47.18
2018-02-25T07:41:00.745Z,47.39
2018-02-25T07:42:01.295Z,46.99
2018-02-25T07:43:58.261Z,47.09
2018-02-25T07:44:58.248Z,47.09
2018-02-25T07:46:59.174Z,46.61
2018-02-25T07:47:58.605Z,46.90
2018-02-25T07:49:59.071Z,47.02
2018-02-25T07:50:59.579Z,46.92
2018-02-25T07:53:00.515Z,47.02
2018-02-25T07:53:59.488Z,47.11
2018-02-25T07:55:55.981Z,47.11
2018-02-25T07:56:55.908Z,47.02
2018-02-25T07:58:53.850Z,47.30
2018-02-25T07:59:53.248Z,46.83
2018-02-25T08:01:53.770Z,46.73
2018-02-25T08:02:53.707Z,46.92
2018-02-25T08:04:51.640Z,46.64
2018-02-25T08:05:51.625Z,46.83
2018-02-25T08:07:48.063Z,46.64
2018-02-25T08:08:48.031Z,46.64
2018-02-25T08:10:44.453Z,46.73
2018-02-25T08:11:43.439Z,46.64
2018-02-25T08:13:42.355Z,46.73
2018-02-25T08:14:41.332Z,46.73
2018-02-25T08:16:42.766Z,46.26
2018-02-25T08:17:42.312Z,46.55
2018-02-25T08:19:38.171Z,46.36
2018-02-25T08:20:38.208Z,46.83
2018-02-25T08:22:36.098Z,46.92
2018-02-25T08:23:35.543Z,46.64
2018-02-25T08:25:32.008Z,46.64
2018-02-25T08:26:32.031Z,46.55
2018-02-25T08:28:27.886Z,46.73
2018-02-25T08:29:27.348Z,46.64
2018-02-25T08:31:25.770Z,45.98
2018-02-25T08:32:25.272Z,46.07
2018-02-25T08:34:26.654Z,45.41
2018-02-25T08:35:25.687Z,45.88
2018-02-25T08:37:24.102Z,45.13
2018-02-25T08:38:23.562Z,44.84
2018-02-25T08:40:24.993Z,45.22
2018-02-25T08:41:24.789Z,45.13
2018-02-25T08:43:24.465Z,44.75
2018-02-25T08:44:25.932Z,44.75
2018-02-25T08:46:26.825Z,44.94
2018-02-25T08:47:24.788Z,45.13
2018-02-25T08:49:25.260Z,45.22
2018-02-25T08:50:25.226Z,44.94
2018-02-25T08:52:26.185Z,45.13
2018-02-25T08:53:25.687Z,45.50
2018-02-25T08:55:27.086Z,45.13
2018-02-25T08:56:26.523Z,44.68
2018-02-25T08:58:26.490Z,44.75
2018-02-25T08:59:26.489Z,45.06
2018-02-25T09:01:26.863Z,45.15
2018-02-25T09:02:26.820Z,45.32
2018-02-25T09:04:27.301Z,44.68
2018-02-25T09:05:27.287Z,44.58
2018-02-25T09:07:34.699Z,44.39
2018-02-25T09:09:55.084Z,44.11
2018-02-25T09:10:55.093Z,44.11
2018-02-25T09:12:56.542Z,44.11
2018-02-25T09:13:55.584Z,44.21
2018-02-25T09:15:55.923Z,43.45
2018-02-25T09:16:57.436Z,43.45
2018-02-25T09:18:55.760Z,42.03
2018-02-25T09:19:53.764Z,41.66
2018-02-25T09:21:54.259Z,41.56
2018-02-25T09:22:54.698Z,41.75
2018-02-25T09:24:54.721Z,41.09
2018-02-25T09:25:54.608Z,41.18
2018-02-25T09:27:55.075Z,41.56
2018-02-25T09:28:55.086Z,41.47
2018-02-25T09:30:56.454Z,40.99
2018-02-25T09:31:55.506Z,41.09
2018-02-25T09:33:56.436Z,41.56
2018-02-25T09:34:56.369Z,41.18
2018-02-25T09:36:56.286Z,41.18
2018-02-25T09:37:56.301Z,41.37
2018-02-25T09:39:54.700Z,41.18
2018-02-25T09:40:54.234Z,41.09
2018-02-25T09:42:52.678Z,40.14
2018-02-25T09:43:51.811Z,40.33
2018-02-25T09:47:26.615Z,39.95
2018-02-25T09:48:26.127Z,39.86
2018-02-25T09:50:27.016Z,39.76
2018-02-25T09:51:26.484Z,39.76
2018-02-25T09:53:25.470Z,39.76
2018-02-25T09:54:25.446Z,39.48
2018-02-25T09:56:25.057Z,38.56
2018-02-25T09:57:25.022Z,38.46
2018-02-25T09:59:25.515Z,38.37
2018-02-25T10:00:25.411Z,37.99
2018-02-25T10:02:24.351Z,37.80
2018-02-25T10:03:23.874Z,38.18
2018-02-25T10:05:24.315Z,36.65
2018-02-25T10:06:25.258Z,35.80
2018-02-25T10:08:24.710Z,35.14
2018-02-25T10:09:24.116Z,35.44
2018-02-25T10:11:23.065Z,35.91
2018-02-25T10:12:22.156Z,35.72
2018-02-25T10:14:18.562Z,34.59
2018-02-25T10:15:17.945Z,34.40
2018-02-25T10:17:19.375Z,33.73
2018-02-25T10:18:18.884Z,33.54
2018-02-25T10:20:20.359Z,33.45
2018-02-25T10:21:19.331Z,33.45
2018-02-25T10:23:19.751Z,33.83
2018-02-25T10:24:19.697Z,33.83
2018-02-25T10:26:19.615Z,34.30
2018-02-25T10:27:20.126Z,34.30
2018-02-25T10:29:21.044Z,34.49
2018-02-25T10:30:20.603Z,34.40
2018-02-25T10:32:18.061Z,33.92
2018-02-25T10:33:18.061Z,33.54
2018-02-25T10:35:18.580Z,32.98
2018-02-25T10:36:18.981Z,32.89
2018-02-25T10:38:22.387Z,32.60
2018-02-25T10:39:21.922Z,32.32
2018-02-25T10:41:19.494Z,32.04
2018-02-25T10:42:19.520Z,32.43
2018-02-25T10:44:18.401Z,31.29
2018-02-25T10:45:18.938Z,31.48
2018-02-25T10:47:17.464Z,30.73
2018-02-25T10:48:17.442Z,30.73
2018-02-25T10:50:19.315Z,31.01
2018-02-25T10:51:18.793Z,29.88
2018-02-25T10:53:19.280Z,30.16
2018-02-25T10:54:19.218Z,29.97
2018-02-25T10:56:19.717Z,29.03
2018-02-25T10:57:19.622Z,28.74
2018-02-25T10:59:20.136Z,29.03
2018-02-25T11:00:20.085Z,28.46
2018-02-25T11:02:20.501Z,28.65
2018-02-25T11:03:20.472Z,28.74
2018-02-25T11:05:16.377Z,29.12
2018-02-25T11:06:16.912Z,29.22
2018-02-25T11:08:12.814Z,28.74
2018-02-25T11:09:12.268Z,28.65
2018-02-25T11:11:11.749Z,28.74
2018-02-25T11:12:11.203Z,28.36
2018-02-25T11:14:09.228Z,28.36
2018-02-25T11:15:08.906Z,28.55
2018-02-25T11:17:05.144Z,28.27
2018-02-25T11:18:05.087Z,27.80
2018-02-25T11:20:01.542Z,27.89
2018-02-25T11:21:00.988Z,27.89
2018-02-25T11:22:59.008Z,27.61
2018-02-25T11:24:00.575Z,27.51
2018-02-25T11:25:59.445Z,27.89
2018-02-25T11:26:59.878Z,27.98
2018-02-25T11:29:00.800Z,28.46
2018-02-25T11:30:00.262Z,28.46
2018-02-25T11:32:00.204Z,27.89
2018-02-25T11:33:00.730Z,27.23
2018-02-25T11:35:01.622Z,26.09
2018-02-25T11:36:02.176Z,26.09
2018-02-25T11:38:02.607Z,26.09
2018-02-25T11:39:02.576Z,26.19
2018-02-25T11:41:04.105Z,25.15
2018-02-25T11:42:02.455Z,24.96
2018-02-25T11:44:03.939Z,25.05
2018-02-25T11:45:03.972Z,24.87
2018-02-25T11:47:05.763Z,24.79
2018-02-25T11:48:04.355Z,25.16
2018-02-25T11:50:02.679Z,26.58
2018-02-25T11:51:02.791Z,26.49
2018-02-25T11:52:58.431Z,26.49
2018-02-25T11:53:58.363Z,25.63
2018-02-25T11:55:54.822Z,25.54
2018-02-25T11:56:55.802Z,25.07
2018-02-25T11:58:52.753Z,25.07
2018-02-25T11:59:52.265Z,25.16
2018-02-25T12:01:51.711Z,25.73
2018-02-25T12:02:50.247Z,25.82
2018-02-25T12:04:50.781Z,25.73
2018-02-25T12:05:51.204Z,26.68
2018-02-25T12:07:52.617Z,26.68
2018-02-25T12:08:52.656Z,26.01
2018-02-25T12:10:53.588Z,25.73
2018-02-25T12:11:53.467Z,24.98
2018-02-25T12:13:53.945Z,25.16
2018-02-25T12:14:59.273Z,24.88
2018-02-25T12:16:52.379Z,24.98
2018-02-25T12:17:51.961Z,25.54
2018-02-25T12:19:52.359Z,25.45
2018-02-25T12:20:52.783Z,24.88
2018-02-25T12:22:50.727Z,25.26
2018-02-25T12:23:51.242Z,25.92
2018-02-25T12:25:52.261Z,25.07
2018-02-25T12:26:50.720Z,24.79
2018-02-25T12:28:50.643Z,25.18
2018-02-25T12:29:48.742Z,24.89
2018-02-25T12:31:50.663Z,23.94
2018-02-25T12:32:50.645Z,23.94
2018-02-25T12:34:47.607Z,23.85
2018-02-25T12:35:47.058Z,23.84
2018-02-25T12:37:47.537Z,23.94
2018-02-25T12:38:47.558Z,23.57
2018-02-25T12:40:47.935Z,22.71
2018-02-25T12:41:47.880Z,22.80
2018-02-25T12:43:48.380Z,22.61
2018-02-25T12:44:48.828Z,22.80
2018-02-25T12:46:44.273Z,23.46
2018-02-25T12:47:44.239Z,22.61
2018-02-25T12:49:43.172Z,23.00
2018-02-25T12:50:43.679Z,23.09
2018-02-25T12:52:42.683Z,22.90
2018-02-25T12:53:42.579Z,22.71
2018-02-25T12:55:42.081Z,23.28
2018-02-25T12:56:41.509Z,23.00
2018-02-25T12:58:41.035Z,22.71
2018-02-25T12:59:41.017Z,23.00
2018-02-25T13:01:42.505Z,22.81
2018-02-25T13:02:41.481Z,23.00
2018-02-25T13:04:43.320Z,22.52
2018-02-25T13:05:43.477Z,21.86
2018-02-25T13:07:43.362Z,21.67
2018-02-25T13:08:42.810Z,21.95
2018-02-25T13:10:43.865Z,21.11
2018-02-25T13:11:43.344Z,21.39
2018-02-25T13:13:43.175Z,21.09
2018-02-25T13:14:43.749Z,21.20
2018-02-25T13:16:45.166Z,21.30
2018-02-25T13:17:43.604Z,21.48
2018-02-25T13:19:44.016Z,20.92
2018-02-25T13:20:44.614Z,21.01
2018-02-25T13:22:44.711Z,20.63
2018-02-25T13:23:45.450Z,20.16
2018-02-25T13:25:45.133Z,20.25
2018-02-25T13:26:45.711Z,19.87
2018-02-25T13:28:46.455Z,20.06
2018-02-25T13:29:45.502Z,19.78
2018-02-25T13:31:47.418Z,19.78
2018-02-25T13:32:46.866Z,19.68
2018-02-25T13:34:46.826Z,20.25
2018-02-25T13:35:45.835Z,19.78
2018-02-25T13:37:45.808Z,19.68
2018-02-25T13:38:45.784Z,19.78
2018-02-25T13:40:45.787Z,19.59
2018-02-25T13:41:46.230Z,19.78
2018-02-25T13:43:46.645Z,19.87
2018-02-25T13:44:46.628Z,19.68
2018-02-25T13:46:46.589Z,19.68
2018-02-25T13:47:47.105Z,19.31
2018-02-25T13:49:47.729Z,18.46
2018-02-25T13:50:47.599Z,18.17
2018-02-25T13:52:48.045Z,17.60
2018-02-25T13:53:48.562Z,17.60
2018-02-25T13:55:48.581Z,17.60
2018-02-25T13:56:48.503Z,18.07
2018-02-25T13:58:50.415Z,17.79
2018-02-25T13:59:48.839Z,18.07
2018-02-25T14:01:51.323Z,17.69
2018-02-25T14:02:49.819Z,18.17
2018-02-25T14:04:49.817Z,17.79
2018-02-25T14:05:49.717Z,17.88
2018-02-25T14:07:50.177Z,17.69
2018-02-25T14:08:50.625Z,17.98
2018-02-25T14:10:51.574Z,18.17
2018-02-25T14:11:51.468Z,17.50
2018-02-25T14:13:56.509Z,17.41
2018-02-25T14:14:55.401Z,17.22
2018-02-25T14:16:52.411Z,17.13
2018-02-25T14:17:52.404Z,17.41
2018-02-25T14:19:50.341Z,17.41
2018-02-25T14:20:50.956Z,17.41
2018-02-25T14:22:52.305Z,17.41
2018-02-25T14:23:51.328Z,17.88
2018-02-25T14:25:52.102Z,17.69
2018-02-25T14:26:51.647Z,17.32
2018-02-25T14:28:52.578Z,17.41
2018-02-25T14:29:52.549Z,16.66
2018-02-25T14:31:54.471Z,16.28
2018-02-25T14:32:54.540Z,16.47
2018-02-25T14:34:55.576Z,16.37
2018-02-25T14:35:55.580Z,16.18
2018-02-25T14:37:56.507Z,16.18
2018-02-25T14:38:54.478Z,16.28
2018-02-25T14:40:54.919Z,16.37
2018-02-25T14:41:54.848Z,16.56
2018-02-25T14:43:56.780Z,16.28
2018-02-25T14:44:56.386Z,16.28
2018-02-25T14:46:56.767Z,16.66
2018-02-25T14:47:56.696Z,16.76
2018-02-25T14:49:57.178Z,16.28
2018-02-25T14:50:57.644Z,15.91
2018-02-25T14:52:58.100Z,15.99
2018-02-25T14:53:58.174Z,16.00
2018-02-25T14:56:00.083Z,16.66
2018-02-25T14:56:59.559Z,16.57
2018-02-25T14:58:59.428Z,16.57
2018-02-25T14:59:59.918Z,16.76
2018-02-25T15:02:01.360Z,16.19
2018-02-25T15:03:01.311Z,16.00
2018-02-25T15:05:01.657Z,16.00
2018-02-25T15:06:01.152Z,15.91
2018-02-25T15:08:01.631Z,16.19
2018-02-25T15:09:02.019Z,16.38
2018-02-25T15:11:03.507Z,16.00
2018-02-25T15:12:03.487Z,16.00
2018-02-25T15:14:03.066Z,16.19
2018-02-25T15:15:02.969Z,16.76
2018-02-25T15:17:03.479Z,16.76
2018-02-25T15:18:03.970Z,16.66
2018-02-25T15:20:04.884Z,15.91
2018-02-25T15:21:04.819Z,15.63
2018-02-25T15:23:05.351Z,15.72
2018-02-25T15:24:05.243Z,15.72
2018-02-25T15:26:06.229Z,16.00
2018-02-25T15:27:05.685Z,16.19
2018-02-25T15:29:06.179Z,16.09
2018-02-25T15:30:06.122Z,15.91
2018-02-25T15:32:08.044Z,15.80
2018-02-25T15:33:08.822Z,15.80
2018-02-25T15:35:07.978Z,15.61
2018-02-25T15:36:08.065Z,15.90
2018-02-25T15:38:06.397Z,16.37
2018-02-25T15:39:07.888Z,16.09
2018-02-25T15:41:06.890Z,16.56
2018-02-25T15:42:06.411Z,16.56
2018-02-25T15:44:07.379Z,17.03
2018-02-25T15:45:07.315Z,17.79
2018-02-25T15:47:29.763Z,18.84
2018-02-25T15:49:28.193Z,19.59
2018-02-25T15:50:29.080Z,19.87
2018-02-25T15:52:28.684Z,19.87
2018-02-25T15:53:28.110Z,19.87
2018-02-25T15:55:28.668Z,20.54
2018-02-25T15:56:28.545Z,21.01
2018-02-25T15:58:28.902Z,20.63
2018-02-25T15:59:29.461Z,20.63
2018-02-25T16:01:30.894Z,21.11
2018-02-25T16:02:29.415Z,21.11
2018-02-25T16:04:30.679Z,21.95
2018-02-25T16:05:30.246Z,22.33
2018-02-25T16:07:31.747Z,23.28
2018-02-25T16:08:30.191Z,23.75
2018-02-25T16:10:32.126Z,26.20
2018-02-25T16:11:31.712Z,27.06
2018-02-25T16:13:31.608Z,28.47
2018-02-25T16:14:31.577Z,28.57
2018-02-25T16:16:31.560Z,29.42
2018-02-25T16:17:31.470Z,29.42
2018-02-25T16:19:31.987Z,29.52
2018-02-25T16:20:31.878Z,29.61
2018-02-25T16:22:32.383Z,29.33
2018-02-25T16:23:33.858Z,29.33
2018-02-25T16:25:33.768Z,29.33
2018-02-25T16:26:32.735Z,28.76
2018-02-25T16:28:33.268Z,28.95
2018-02-25T16:29:33.119Z,28.57
2018-02-25T16:33:10.158Z,29.04
2018-02-25T16:34:08.715Z,29.33
2018-02-25T16:36:09.144Z,29.61
2018-02-25T16:37:09.116Z,29.52
2018-02-25T16:39:06.555Z,29.71
2018-02-25T16:40:06.517Z,30.07
2018-02-25T16:42:05.471Z,30.08
2018-02-25T16:43:04.495Z,29.79
2018-02-25T16:45:03.376Z,29.88
2018-02-25T16:46:02.353Z,29.79
2018-02-25T16:48:03.356Z,30.54
2018-02-25T16:49:02.743Z,30.73
2018-02-25T16:51:03.206Z,31.10
2018-02-25T16:52:03.703Z,31.39
2018-02-25T16:54:04.212Z,31.20
2018-02-25T16:55:03.602Z,31.48
2018-02-25T16:57:01.519Z,31.29
2018-02-25T16:58:01.486Z,31.39
2018-02-25T17:00:00.831Z,31.86
2018-02-25T17:01:00.942Z,31.77
2018-02-25T17:02:59.829Z,31.96
2018-02-25T17:04:00.340Z,31.96
2018-02-25T17:05:57.776Z,32.24
2018-02-25T17:06:57.722Z,32.43
2018-02-25T17:08:59.668Z,32.71
2018-02-25T17:09:58.123Z,32.81
2018-02-25T17:11:55.089Z,32.71
2018-02-25T17:14:10.249Z,33.18
2018-02-25T17:15:10.748Z,33.45
2018-02-25T17:17:10.666Z,33.64
2018-02-25T17:18:10.669Z,34.11
2018-02-25T17:20:12.070Z,34.11
2018-02-25T17:21:12.621Z,34.21
2018-02-25T17:23:09.460Z,34.21
2018-02-25T17:24:09.460Z,34.02
2018-02-25T17:26:09.904Z,33.92
2018-02-25T17:27:09.370Z,34.02
2018-02-25T17:29:10.810Z,33.92
2018-02-25T17:30:11.312Z,34.11
2018-02-25T17:32:07.764Z,34.11
2018-02-25T17:33:08.199Z,34.21
2018-02-25T17:35:06.618Z,34.49
2018-02-25T17:36:06.130Z,34.21
2018-02-25T17:38:06.088Z,33.83
2018-02-25T17:39:05.967Z,33.54
2018-02-25T17:41:07.399Z,31.94
2018-02-25T17:42:06.391Z,31.28
2018-02-25T17:44:07.351Z,30.80
2018-02-25T17:45:07.373Z,30.33
2018-02-25T17:47:07.773Z,29.68
2018-02-25T17:48:07.752Z,29.30
2018-02-25T17:50:08.586Z,29.20
2018-02-25T17:51:07.706Z,28.92
2018-02-25T17:53:08.603Z,28.25
2018-02-25T17:54:08.578Z,28.44
2018-02-25T17:56:09.009Z,28.63
2018-02-25T17:57:08.458Z,28.63
2018-02-25T17:59:08.983Z,27.97
2018-02-25T18:00:08.896Z,27.69
2018-02-25T18:02:07.847Z,28.16
2018-02-25T18:03:06.945Z,28.35
2018-02-25T18:05:09.267Z,28.16
2018-02-25T18:06:07.378Z,28.35
2018-02-25T18:08:05.325Z,28.44
2018-02-25T18:09:05.218Z,28.35
2018-02-25T18:11:03.136Z,28.35
2018-02-25T18:12:03.656Z,28.44
2018-02-25T18:14:02.598Z,29.11
2018-02-25T18:15:02.591Z,28.93
2018-02-25T18:16:57.853Z,28.84
2018-02-25T18:17:58.345Z,29.11
2018-02-25T18:19:54.236Z,28.82
2018-02-25T18:20:53.752Z,28.92
2018-02-25T18:22:50.153Z,28.84
2018-02-25T18:23:49.598Z,29.03
2018-02-25T18:25:48.058Z,29.60
2018-02-25T18:26:47.640Z,29.79
2018-02-25T18:28:48.632Z,29.79
2018-02-25T18:29:48.551Z,29.79
2018-02-25T18:31:46.477Z,29.97
2018-02-25T18:32:45.911Z,29.97
2018-02-25T18:34:44.361Z,30.44
2018-02-25T18:35:44.386Z,30.44
2018-02-25T18:37:44.338Z,30.54
2018-02-25T18:38:44.789Z,30.73
2018-02-25T18:40:42.704Z,31.10
2018-02-25T18:41:42.693Z,31.18
2018-02-25T18:43:44.108Z,31.09
2018-02-25T18:44:43.089Z,31.28
2018-02-25T18:46:43.058Z,31.09
2018-02-25T18:47:43.166Z,31.56
2018-02-25T18:49:44.524Z,31.47
2018-02-25T18:50:43.424Z,30.99
2018-02-25T18:52:43.895Z,31.09
2018-02-25T18:53:44.345Z,30.90
2018-02-25T18:55:44.306Z,31.09
2018-02-25T18:56:44.265Z,30.90
2018-02-25T18:58:45.700Z,31.28
2018-02-25T18:59:44.692Z,31.37
2018-02-25T19:01:45.111Z,31.37
2018-02-25T19:02:46.617Z,31.37
2018-02-25T19:04:45.546Z,31.37
2018-02-25T19:05:45.554Z,31.28
2018-02-25T19:07:46.479Z,31.37
2018-02-25T19:08:46.492Z,31.47
2018-02-25T19:10:46.901Z,31.18
2018-02-25T19:11:46.384Z,31.37
2018-02-25T19:13:46.799Z,31.56
2018-02-25T19:14:46.751Z,31.94
2018-02-25T19:16:47.186Z,32.04
2018-02-25T19:17:47.219Z,32.13
2018-02-25T19:19:49.584Z,32.51
2018-02-25T19:20:48.122Z,32.42
2018-02-25T19:22:48.034Z,32.42
2018-02-25T19:23:48.033Z,32.23